createdAt,value
2019-03-27T00:01:12.465Z,2.37
2019-03-27T00:03:40.907Z,1.83
2019-03-27T00:06:09.383Z,2.50
2019-03-27T00:08:37.933Z,2.10
2019-03-27T00:11:06.643Z,2.03
2019-03-27T00:13:35.083Z,2.13
2019-03-27T00:16:03.712Z,2.07
2019-03-27T00:18:32.150Z,2.07
2019-03-27T00:21:00.606Z,1.57
2019-03-27T00:23:29.050Z,2.03
2019-03-27T00:25:57.507Z,2.60
2019-03-27T00:28:25.969Z,2.00
2019-03-27T00:30:54.418Z,2.27
2019-03-27T00:33:22.875Z,1.90
2019-03-27T00:35:51.335Z,2.40
2019-03-27T00:38:19.791Z,2.17
2019-03-27T00:40:48.246Z,2.30
2019-03-27T00:43:16.690Z,2.07
2019-03-27T00:45:45.218Z,2.00
2019-03-27T00:48:13.667Z,2.70
2019-03-27T00:50:42.196Z,2.00
2019-03-27T00:53:10.639Z,2.23
2019-03-27T00:55:39.411Z,2.00
2019-03-27T00:58:07.856Z,1.87
2019-03-27T01:00:45.051Z,2.03
2019-03-27T01:03:13.580Z,2.30
2019-03-27T01:05:42.018Z,2.10
2019-03-27T01:08:10.483Z,2.53
2019-03-27T01:10:38.931Z,2.53
2019-03-27T01:13:07.387Z,2.40
2019-03-27T01:15:39.997Z,2.10
2019-03-27T01:18:06.015Z,2.40
2019-03-27T01:20:34.477Z,2.03
2019-03-27T01:23:02.926Z,2.33
2019-03-27T01:25:31.479Z,2.50
2019-03-27T01:27:59.923Z,2.47
2019-03-27T01:30:28.367Z,2.40
2019-03-27T01:32:56.824Z,2.13
2019-03-27T01:35:25.274Z,2.40
2019-03-27T01:37:53.753Z,2.73
2019-03-27T01:40:22.262Z,2.43
2019-03-27T01:42:50.715Z,2.30
2019-03-27T01:45:19.253Z,2.30
2019-03-27T01:47:47.695Z,2.30
2019-03-27T01:50:16.219Z,2.10
2019-03-27T01:52:44.666Z,1.87
2019-03-27T01:55:13.275Z,1.80
2019-03-27T01:57:41.792Z,2.40
2019-03-27T02:00:10.663Z,2.40
2019-03-27T02:02:39.179Z,2.07
2019-03-27T02:05:07.980Z,2.80
2019-03-27T02:07:36.435Z,2.70
2019-03-27T02:10:07.215Z,2.70
2019-03-27T02:12:35.748Z,2.20
2019-03-27T02:15:06.899Z,2.20
2019-03-27T02:17:35.427Z,3.17
2019-03-27T02:20:05.407Z,2.73
2019-03-27T02:22:33.889Z,2.30
2019-03-27T02:25:02.409Z,2.90
2019-03-27T02:27:30.874Z,2.53
2019-03-27T02:29:59.386Z,2.90
2019-03-27T02:32:27.845Z,2.90
2019-03-27T02:34:56.307Z,2.57
2019-03-27T02:37:24.757Z,2.30
2019-03-27T02:39:53.290Z,2.73
2019-03-27T02:42:21.806Z,2.83
2019-03-27T02:44:50.320Z,2.33
2019-03-27T02:47:18.782Z,2.90
2019-03-27T02:49:47.319Z,2.30
2019-03-27T02:52:15.851Z,2.60
2019-03-27T02:54:44.367Z,2.97
2019-03-27T02:57:12.835Z,2.30
2019-03-27T02:59:41.416Z,2.60
2019-03-27T03:02:10.017Z,2.13
2019-03-27T03:04:38.471Z,3.60
2019-03-27T03:07:06.915Z,2.50
2019-03-27T03:09:35.380Z,3.07
2019-03-27T03:12:03.900Z,2.90
2019-03-27T03:14:32.503Z,2.60
2019-03-27T03:17:01.024Z,3.33
2019-03-27T03:19:29.641Z,2.50
2019-03-27T03:21:58.156Z,2.43
2019-03-27T03:24:26.701Z,2.83
2019-03-27T03:26:55.227Z,2.87
2019-03-27T03:29:23.998Z,2.93
2019-03-27T03:31:52.541Z,2.73
2019-03-27T03:34:21.350Z,2.80
2019-03-27T03:36:50.517Z,2.77
2019-03-27T03:39:19.038Z,3.23
2019-03-27T03:41:47.742Z,3.10
2019-03-27T03:44:16.259Z,3.10
2019-03-27T03:46:58.807Z,2.87
2019-03-27T03:49:14.916Z,2.70
2019-03-27T03:51:43.792Z,2.90
2019-03-27T03:54:12.815Z,2.70
2019-03-27T03:56:42.230Z,3.00
2019-03-27T03:59:13.091Z,2.23
2019-03-27T04:01:43.435Z,2.80
2019-03-27T04:04:13.355Z,2.87
2019-03-27T04:06:41.888Z,2.90
2019-03-27T04:09:10.512Z,2.70
2019-03-27T04:11:38.973Z,2.67
2019-03-27T04:14:07.597Z,2.60
2019-03-27T04:16:36.062Z,2.73
2019-03-27T04:19:04.595Z,3.10
2019-03-27T04:21:33.112Z,3.00
2019-03-27T04:24:01.596Z,3.00
2019-03-27T04:26:33.393Z,2.60
2019-03-27T04:29:00.416Z,2.43
2019-03-27T04:31:28.929Z,2.80
2019-03-27T04:33:58.028Z,2.63
2019-03-27T04:36:26.548Z,2.93
2019-03-27T04:38:55.003Z,3.07
2019-03-27T04:41:23.467Z,2.77
2019-03-27T04:43:51.998Z,2.47
2019-03-27T04:46:20.523Z,2.77
2019-03-27T04:48:49.060Z,3.30
2019-03-27T04:51:17.514Z,3.17
2019-03-27T04:53:45.975Z,2.90
2019-03-27T04:56:14.437Z,2.80
2019-03-27T04:58:43.107Z,2.80
2019-03-27T05:01:11.580Z,2.60
2019-03-27T05:03:40.018Z,2.50
2019-03-27T05:06:08.551Z,2.83
2019-03-27T05:08:37.023Z,4.20
2019-03-27T05:11:05.463Z,3.30
2019-03-27T05:13:33.905Z,4.13
2019-03-27T05:16:02.359Z,3.50
2019-03-27T05:18:30.827Z,3.10
2019-03-27T05:20:59.347Z,3.20
2019-03-27T05:23:27.879Z,2.63
2019-03-27T05:25:56.319Z,3.30
2019-03-27T05:28:24.759Z,3.67
2019-03-27T05:30:53.219Z,3.33
2019-03-27T05:33:21.744Z,3.10
2019-03-27T05:35:50.198Z,2.90
2019-03-27T05:38:18.655Z,2.97
2019-03-27T05:40:47.099Z,3.30
2019-03-27T05:43:15.568Z,3.00
2019-03-27T05:45:44.085Z,3.13
2019-03-27T05:48:12.599Z,3.50
2019-03-27T05:50:41.055Z,3.17
2019-03-27T05:53:09.499Z,3.63
2019-03-27T05:55:37.939Z,3.20
2019-03-27T05:58:06.395Z,3.30
2019-03-27T06:00:34.854Z,2.87
2019-03-27T06:03:03.307Z,4.17
2019-03-27T06:05:31.839Z,3.23
2019-03-27T06:08:00.283Z,3.60
2019-03-27T06:10:28.739Z,3.20
2019-03-27T06:12:57.201Z,3.67
2019-03-27T06:15:25.807Z,3.77
2019-03-27T06:17:54.259Z,4.03
2019-03-27T06:20:22.700Z,4.00
2019-03-27T06:22:51.151Z,4.40
2019-03-27T06:25:19.596Z,4.27
2019-03-27T06:27:48.051Z,4.17
2019-03-27T06:30:16.576Z,4.10
2019-03-27T06:32:45.103Z,4.17
2019-03-27T06:35:13.727Z,4.53
2019-03-27T06:37:42.183Z,4.10
2019-03-27T06:40:10.970Z,4.23
2019-03-27T06:42:39.423Z,4.57
2019-03-27T06:45:08.223Z,4.30
2019-03-27T06:47:36.806Z,5.47
2019-03-27T06:50:07.176Z,3.60
2019-03-27T06:52:35.729Z,4.47
2019-03-27T06:55:06.307Z,4.20
2019-03-27T06:57:34.839Z,3.27
2019-03-27T07:00:05.187Z,4.30
2019-03-27T07:02:33.711Z,3.90
2019-03-27T07:05:02.183Z,3.23
2019-03-27T07:07:31.039Z,3.10
2019-03-27T07:09:59.523Z,4.57
2019-03-27T07:12:27.995Z,4.60
2019-03-27T07:14:56.455Z,4.40
2019-03-27T07:17:24.899Z,4.47
2019-03-27T07:19:53.358Z,4.50
2019-03-27T07:22:21.799Z,4.80
2019-03-27T07:24:50.257Z,4.40
2019-03-27T07:27:18.695Z,4.20
2019-03-27T07:29:47.324Z,5.47
2019-03-27T07:32:15.858Z,4.83
2019-03-27T07:34:44.372Z,4.77
2019-03-27T07:37:12.831Z,5.67
2019-03-27T07:39:41.275Z,6.27
2019-03-27T07:42:09.738Z,5.30
2019-03-27T07:44:38.179Z,4.73
2019-03-27T07:47:06.718Z,5.57
2019-03-27T07:49:35.175Z,5.00
2019-03-27T07:52:03.712Z,5.27
2019-03-27T07:54:32.155Z,4.30
2019-03-27T07:57:01.018Z,4.23
2019-03-27T07:59:29.591Z,4.87
2019-03-27T08:01:58.035Z,4.40
2019-03-27T08:04:26.495Z,4.43
2019-03-27T08:06:54.943Z,4.37
2019-03-27T08:09:23.407Z,4.80
2019-03-27T08:11:51.849Z,3.80
2019-03-27T08:14:20.311Z,4.50
2019-03-27T08:16:48.822Z,4.83
2019-03-27T08:19:17.361Z,3.97
2019-03-27T08:21:45.807Z,4.37
2019-03-27T08:24:14.250Z,5.23
2019-03-27T08:26:42.708Z,6.00
2019-03-27T08:29:11.216Z,5.67
2019-03-27T08:31:39.753Z,5.23
2019-03-27T08:34:08.196Z,3.80
2019-03-27T08:36:36.674Z,4.30
2019-03-27T08:39:07.699Z,3.67
2019-03-27T08:41:36.779Z,3.40
2019-03-27T08:44:05.576Z,3.40
2019-03-27T08:46:34.100Z,3.37
2019-03-27T08:49:02.731Z,3.60
2019-03-27T08:51:31.279Z,2.90
2019-03-27T08:53:59.723Z,3.37
2019-03-27T08:56:28.237Z,2.73
2019-03-27T08:58:56.703Z,3.70
2019-03-27T09:01:25.224Z,3.10
2019-03-27T09:03:53.682Z,2.57
2019-03-27T09:06:33.102Z,3.07
2019-03-27T09:08:52.311Z,2.83
2019-03-27T09:11:20.777Z,3.10
2019-03-27T09:13:49.302Z,2.50
2019-03-27T09:16:17.755Z,2.30
2019-03-27T09:18:46.251Z,2.33
2019-03-27T09:21:14.788Z,2.40
2019-03-27T09:23:45.788Z,2.30
2019-03-27T09:26:13.415Z,2.40
2019-03-27T09:28:41.947Z,2.27
2019-03-27T09:31:10.410Z,2.30
2019-03-27T09:33:38.851Z,2.90
2019-03-27T09:36:07.551Z,3.07
2019-03-27T09:38:36.204Z,2.50
2019-03-27T09:41:04.787Z,2.73
2019-03-27T09:43:33.322Z,2.40
2019-03-27T09:46:01.784Z,2.20
2019-03-27T09:48:30.241Z,2.43
2019-03-27T09:50:58.768Z,2.00
2019-03-27T09:53:27.231Z,2.30
2019-03-27T09:55:55.675Z,2.57
2019-03-27T09:58:24.143Z,2.30
2019-03-27T10:00:54.991Z,2.30
2019-03-27T10:03:23.523Z,4.00
2019-03-27T10:05:52.162Z,2.67
2019-03-27T10:08:20.675Z,2.33
2019-03-27T10:10:50.375Z,2.77
2019-03-27T10:13:19.458Z,2.30
2019-03-27T10:15:47.914Z,2.60
2019-03-27T10:18:16.432Z,1.77
2019-03-27T10:20:45.041Z,1.63
2019-03-27T10:23:13.576Z,2.60
2019-03-27T10:25:42.033Z,2.10
2019-03-27T10:28:10.491Z,3.43
2019-03-27T10:30:38.941Z,3.03
2019-03-27T10:33:07.395Z,2.50
2019-03-27T10:35:35.857Z,1.90
2019-03-27T10:38:04.438Z,2.77
2019-03-27T10:40:32.967Z,2.20
2019-03-27T10:43:01.438Z,2.47
2019-03-27T10:45:29.959Z,2.80
2019-03-27T10:47:58.407Z,2.40
2019-03-27T10:50:26.942Z,2.87
2019-03-27T10:52:55.394Z,2.20
2019-03-27T10:55:23.860Z,2.90
2019-03-27T10:57:52.303Z,2.20
2019-03-27T11:00:20.820Z,2.33
2019-03-27T11:02:49.347Z,2.13
2019-03-27T11:05:18.125Z,2.20
2019-03-27T11:07:46.625Z,2.20
2019-03-27T11:10:15.592Z,1.90
2019-03-27T11:12:44.048Z,2.10
2019-03-27T11:15:13.155Z,2.10
2019-03-27T11:17:41.619Z,1.70
2019-03-27T11:20:11.695Z,2.03
2019-03-27T11:22:40.219Z,2.10
2019-03-27T11:25:09.515Z,1.57
2019-03-27T11:27:38.028Z,2.63
2019-03-27T11:30:09.234Z,2.40
2019-03-27T11:32:37.823Z,1.87
2019-03-27T11:35:06.727Z,2.30
2019-03-27T11:37:35.251Z,2.20
2019-03-27T11:40:05.419Z,1.97
2019-03-27T11:42:33.947Z,2.07
2019-03-27T11:45:02.459Z,2.40
2019-03-27T11:47:30.938Z,1.90
2019-03-27T11:49:59.474Z,2.10
2019-03-27T11:52:29.652Z,2.27
2019-03-27T11:54:58.125Z,2.20
2019-03-27T11:57:26.587Z,2.43
2019-03-27T11:59:55.036Z,2.30
2019-03-27T12:02:23.491Z,2.13
2019-03-27T12:04:51.942Z,2.03
2019-03-27T12:07:20.411Z,2.10
2019-03-27T12:09:48.983Z,1.80
2019-03-27T12:12:17.422Z,1.80
2019-03-27T12:14:45.867Z,2.30
2019-03-27T12:17:14.330Z,1.90
2019-03-27T12:19:42.797Z,1.90
2019-03-27T12:22:11.334Z,2.10
2019-03-27T12:24:39.846Z,1.73
2019-03-27T12:27:08.304Z,1.40
2019-03-27T12:29:36.745Z,2.20
2019-03-27T12:32:05.202Z,2.10
2019-03-27T12:34:36.733Z,2.07
2019-03-27T12:37:03.844Z,1.77
2019-03-27T12:39:32.283Z,2.13
2019-03-27T12:42:01.100Z,1.70
2019-03-27T12:44:29.539Z,1.37
2019-03-27T12:46:58.047Z,2.43
2019-03-27T12:49:26.644Z,1.97
2019-03-27T12:51:55.091Z,1.90
2019-03-27T12:54:23.558Z,1.60
2019-03-27T12:56:52.011Z,2.17
2019-03-27T12:59:20.540Z,1.80
2019-03-27T13:01:48.995Z,1.73
2019-03-27T13:04:17.441Z,1.80
2019-03-27T13:06:45.896Z,2.03
2019-03-27T13:09:14.411Z,1.70
2019-03-27T13:11:42.943Z,1.33
2019-03-27T13:14:11.472Z,2.10
2019-03-27T13:16:39.982Z,1.43
2019-03-27T13:19:08.444Z,1.60
2019-03-27T13:21:36.885Z,1.20
2019-03-27T13:24:05.415Z,1.47
2019-03-27T13:26:33.865Z,1.50
2019-03-27T13:29:02.303Z,1.50
2019-03-27T13:31:30.827Z,1.13
2019-03-27T13:33:59.272Z,1.30
2019-03-27T13:36:27.731Z,1.23
2019-03-27T13:38:56.183Z,1.80
2019-03-27T13:41:24.706Z,1.60
2019-03-27T13:43:53.225Z,1.50
2019-03-27T13:46:21.678Z,1.60
2019-03-27T13:48:50.141Z,1.50
2019-03-27T13:51:18.675Z,1.27
2019-03-27T13:53:47.192Z,1.60
2019-03-27T13:56:15.724Z,1.40
2019-03-27T13:58:44.164Z,1.40
2019-03-27T14:01:13.064Z,1.77
2019-03-27T14:03:41.610Z,1.50
2019-03-27T14:06:10.149Z,1.60
2019-03-27T14:08:38.591Z,1.93
2019-03-27T14:11:07.046Z,1.60
2019-03-27T14:13:36.386Z,1.30
2019-03-27T14:16:05.847Z,1.70
2019-03-27T14:18:34.312Z,1.63
2019-03-27T14:21:02.894Z,1.47
2019-03-27T14:23:31.355Z,1.60
2019-03-27T14:25:59.793Z,1.57
2019-03-27T14:28:28.252Z,1.47
2019-03-27T14:30:58.359Z,2.00
2019-03-27T14:33:26.867Z,1.60
2019-03-27T14:35:55.312Z,1.37
2019-03-27T14:38:24.312Z,2.00
2019-03-27T14:40:52.899Z,1.77
2019-03-27T14:43:21.552Z,1.90
2019-03-27T14:45:50.547Z,2.10
2019-03-27T14:48:18.993Z,2.23
2019-03-27T14:50:47.460Z,1.67
2019-03-27T14:53:15.988Z,2.00
2019-03-27T14:55:44.427Z,2.10
2019-03-27T14:58:12.885Z,1.60
2019-03-27T15:00:41.397Z,1.97
2019-03-27T15:03:09.946Z,1.83
2019-03-27T15:05:38.400Z,1.73
2019-03-27T15:08:07.085Z,1.77
2019-03-27T15:10:35.594Z,2.00
2019-03-27T15:13:04.119Z,1.43
2019-03-27T15:15:32.655Z,1.70
2019-03-27T15:18:01.167Z,1.63
2019-03-27T15:20:29.627Z,1.80
2019-03-27T15:22:58.151Z,1.80
2019-03-27T15:25:26.607Z,2.23
2019-03-27T15:27:55.071Z,2.97
2019-03-27T15:30:23.515Z,3.17
2019-03-27T15:32:51.974Z,3.23
2019-03-27T15:35:20.436Z,3.43
2019-03-27T15:37:48.898Z,3.33
2019-03-27T15:40:20.437Z,4.50
2019-03-27T15:42:48.968Z,3.20
2019-03-27T15:45:17.546Z,3.33
2019-03-27T15:47:45.991Z,3.13
2019-03-27T15:50:14.751Z,3.13
2019-03-27T15:52:43.233Z,2.57
2019-03-27T15:55:11.935Z,2.97
2019-03-27T15:57:40.720Z,3.33
2019-03-27T16:00:11.461Z,3.50
2019-03-27T16:02:40.047Z,3.40
2019-03-27T16:05:08.743Z,2.93
2019-03-27T16:07:37.447Z,3.00
2019-03-27T16:10:07.145Z,3.07
2019-03-27T16:12:36.516Z,2.70
2019-03-27T16:15:09.555Z,2.77
2019-03-27T16:17:38.155Z,3.17
2019-03-27T16:20:09.759Z,2.90
2019-03-27T16:22:49.944Z,2.23
2019-03-27T16:25:08.600Z,2.40
2019-03-27T16:27:37.132Z,2.87
2019-03-27T16:30:07.987Z,3.13
2019-03-27T16:32:36.581Z,2.77
2019-03-27T16:35:07.364Z,2.80
2019-03-27T16:37:35.964Z,3.23
2019-03-27T16:40:06.647Z,4.13
2019-03-27T16:42:35.179Z,3.53
2019-03-27T16:45:05.864Z,7.33
2019-03-27T16:47:34.451Z,6.77
2019-03-27T16:50:04.043Z,4.33
2019-03-27T16:52:32.489Z,4.20
2019-03-27T16:55:01.275Z,3.40
2019-03-27T16:57:29.715Z,3.60
2019-03-27T16:59:58.165Z,3.60
2019-03-27T17:02:26.623Z,3.07
2019-03-27T17:04:55.066Z,3.33
2019-03-27T17:07:23.522Z,3.13
2019-03-27T17:09:51.972Z,3.40
2019-03-27T17:12:20.427Z,3.50
2019-03-27T17:14:48.874Z,3.73
2019-03-27T17:17:17.326Z,3.57
2019-03-27T17:19:45.768Z,2.10
2019-03-27T17:22:19.723Z,2.10
2019-03-27T17:24:44.408Z,1.97
2019-03-27T17:27:12.848Z,1.30
2019-03-27T17:29:41.311Z,2.53
2019-03-27T17:32:09.761Z,1.63
2019-03-27T17:34:38.285Z,1.30
2019-03-27T17:37:06.743Z,1.73
2019-03-27T17:39:35.204Z,1.60
2019-03-27T17:42:03.651Z,1.23
2019-03-27T17:44:32.103Z,1.33
2019-03-27T17:47:02.090Z,1.23
2019-03-27T17:49:30.584Z,1.00
2019-03-27T17:51:59.047Z,1.30
2019-03-27T17:54:27.488Z,1.23
2019-03-27T17:56:55.927Z,1.20
2019-03-27T17:59:24.384Z,1.73
2019-03-27T18:01:52.823Z,0.93
2019-03-27T18:04:21.279Z,1.30
2019-03-27T18:06:49.719Z,1.20
2019-03-27T18:09:18.176Z,1.37
2019-03-27T18:11:46.672Z,2.30
2019-03-27T18:14:15.116Z,1.33
2019-03-27T18:16:43.707Z,1.33
2019-03-27T18:19:12.235Z,1.60
2019-03-27T18:21:40.731Z,1.80
2019-03-27T18:24:09.287Z,2.00
2019-03-27T18:26:37.726Z,1.30
2019-03-27T18:29:06.188Z,1.30
2019-03-27T18:31:34.648Z,1.30
2019-03-27T18:34:03.162Z,1.30
2019-03-27T18:36:31.620Z,1.03
2019-03-27T18:39:00.082Z,1.30
2019-03-27T18:41:28.602Z,1.47
2019-03-27T18:43:57.059Z,1.40
2019-03-27T18:46:25.593Z,1.43
2019-03-27T18:48:54.036Z,1.50
2019-03-27T18:51:22.496Z,2.13
2019-03-27T18:53:59.530Z,1.83
2019-03-27T18:56:21.254Z,2.03
2019-03-27T18:58:49.716Z,2.37
2019-03-27T19:01:18.235Z,3.43
2019-03-27T19:03:46.796Z,4.70
2019-03-27T19:06:15.240Z,8.07
2019-03-27T19:08:43.703Z,8.40
2019-03-27T19:11:12.146Z,8.30
2019-03-27T19:13:40.607Z,7.53
2019-03-27T19:16:09.052Z,5.40
2019-03-27T19:18:37.507Z,5.30
2019-03-27T19:21:06.017Z,6.00
2019-03-27T19:23:34.567Z,5.80
2019-03-27T19:26:03.033Z,6.43
2019-03-27T19:28:31.552Z,5.60
2019-03-27T19:31:00.155Z,7.30
2019-03-27T19:33:28.668Z,6.67
2019-03-27T19:35:57.152Z,5.20
2019-03-27T19:38:25.600Z,6.50
2019-03-27T19:40:54.112Z,6.00
2019-03-27T19:43:22.568Z,4.10
2019-03-27T19:45:51.093Z,2.50
2019-03-27T19:48:19.527Z,3.33
2019-03-27T19:50:47.987Z,2.87
2019-03-27T19:53:16.431Z,3.70
2019-03-27T19:55:44.887Z,2.53
2019-03-27T19:58:13.403Z,2.90
2019-03-27T20:00:41.932Z,2.57
2019-03-27T20:03:10.375Z,1.93
2019-03-27T20:05:38.831Z,2.43
2019-03-27T20:08:07.291Z,2.17
2019-03-27T20:10:35.809Z,1.80
2019-03-27T20:13:04.340Z,2.00
2019-03-27T20:15:32.942Z,2.00
2019-03-27T20:18:01.455Z,3.03
2019-03-27T20:20:29.967Z,2.60
2019-03-27T20:22:58.424Z,3.13
2019-03-27T20:25:26.869Z,4.57
2019-03-27T20:27:55.401Z,5.73
2019-03-27T20:30:26.638Z,4.10
2019-03-27T20:32:54.263Z,4.47
2019-03-27T20:35:23.205Z,3.53
2019-03-27T20:37:51.671Z,3.00
2019-03-27T20:40:20.246Z,3.80
2019-03-27T20:42:51.959Z,3.33
2019-03-27T20:45:18.980Z,3.53
2019-03-27T20:47:47.491Z,2.53
2019-03-27T20:50:16.222Z,2.43
2019-03-27T20:52:44.700Z,2.53
2019-03-27T20:55:13.579Z,2.07
2019-03-27T20:57:42.100Z,2.03
2019-03-27T21:00:11.164Z,2.63
2019-03-27T21:02:39.778Z,2.10
2019-03-27T21:05:08.759Z,2.40
2019-03-27T21:07:37.207Z,2.60
2019-03-27T21:10:06.875Z,2.50
2019-03-27T21:12:35.661Z,3.60
2019-03-27T21:15:05.063Z,3.00
2019-03-27T21:17:33.515Z,2.90
2019-03-27T21:20:01.962Z,2.70
2019-03-27T21:22:30.443Z,3.20
2019-03-27T21:25:08.481Z,3.37
2019-03-27T21:27:29.072Z,3.13
2019-03-27T21:29:57.531Z,3.50
2019-03-27T21:32:25.987Z,2.67
2019-03-27T21:34:54.434Z,2.87
2019-03-27T21:37:22.887Z,2.70
2019-03-27T21:39:51.404Z,2.20
2019-03-27T21:42:19.935Z,2.60
2019-03-27T21:44:48.375Z,2.30
2019-03-27T21:47:16.835Z,3.00
2019-03-27T21:49:45.312Z,3.40
2019-03-27T21:52:13.754Z,3.20
2019-03-27T21:54:42.210Z,3.07
2019-03-27T21:57:10.672Z,3.17
2019-03-27T21:59:39.154Z,3.53
2019-03-27T22:02:08.279Z,3.40
2019-03-27T22:04:36.715Z,3.83
2019-03-27T22:07:05.245Z,3.10
2019-03-27T22:09:33.683Z,2.73
2019-03-27T22:12:02.142Z,2.10
2019-03-27T22:14:30.591Z,3.03
2019-03-27T22:16:59.045Z,3.10
2019-03-27T22:19:27.637Z,2.70
2019-03-27T22:21:56.167Z,2.00
2019-03-27T22:24:24.626Z,3.17
2019-03-27T22:26:53.079Z,2.80
2019-03-27T22:29:21.595Z,2.40
2019-03-27T22:31:50.051Z,2.63
2019-03-27T22:34:18.490Z,2.40
2019-03-27T22:36:46.953Z,3.20
2019-03-27T22:39:15.462Z,2.47
2019-03-27T22:41:43.920Z,2.70
2019-03-27T22:44:12.360Z,2.43
2019-03-27T22:46:41.149Z,2.83
2019-03-27T22:49:09.655Z,2.50
2019-03-27T22:51:38.099Z,2.53
2019-03-27T22:54:06.631Z,2.73
2019-03-27T22:56:35.076Z,2.40
2019-03-27T22:59:03.530Z,3.47
2019-03-27T23:01:37.601Z,2.80
2019-03-27T23:04:06.063Z,2.73
2019-03-27T23:06:34.508Z,3.13
2019-03-27T23:09:04.122Z,2.70
2019-03-27T23:11:32.594Z,2.63
2019-03-27T23:14:01.094Z,2.60
2019-03-27T23:16:29.627Z,2.40
2019-03-27T23:18:58.067Z,2.80
2019-03-27T23:21:26.527Z,3.07
2019-03-27T23:23:54.982Z,2.60
2019-03-27T23:26:23.442Z,2.90
2019-03-27T23:28:51.894Z,3.30
2019-03-27T23:31:20.361Z,2.93
2019-03-27T23:33:48.807Z,3.13
2019-03-27T23:36:17.263Z,2.73
2019-03-27T23:38:45.724Z,3.20
2019-03-27T23:41:14.169Z,2.77
2019-03-27T23:43:42.631Z,3.20
2019-03-27T23:46:11.079Z,2.70
2019-03-27T23:48:39.531Z,3.20
2019-03-27T23:51:07.993Z,2.93
2019-03-27T23:53:36.430Z,2.80
2019-03-27T23:56:15.825Z,2.97
2019-03-27T23:58:35.068Z,3.30
